sensor_id;sensor_type;location;lat;lon;timestamp;temperature;humidity
2757;DHT22;1386;50.862;6.494;2023-09-19T00:00:30;16.90;99.90
2757;DHT22;1386;50.862;6.494;2023-09-19T00:02:59;16.90;99.90
2757;DHT22;1386;50.862;6.494;2023-09-19T00:05:28;16.90;99.90
2757;DHT22;1386;50.862;6.494;2023-09-19T00:07:57;16.90;99.90
2757;DHT22;1386;50.862;6.494;2023-09-19T00:10:25;16.90;99.90
2757;DHT22;1386;50.862;6.494;2023-09-19T00:12:52;16.90;99.90
2757;DHT22;1386;50.862;6.494;2023-09-19T00:15:21;16.80;99.90
2757;DHT22;1386;50.862;6.494;2023-09-19T00:17:48;16.90;99.90
2757;DHT22;1386;50.862;6.494;2023-09-19T00:20:18;16.90;99.90
2757;DHT22;1386;50.862;6.494;2023-09-19T00:22:48;16.90;99.90
2757;DHT22;1386;50.862;6.494;2023-09-19T00:25:16;16.90;99.90
2757;DHT22;1386;50.862;6.494;2023-09-19T00:27:42;16.90;99.90
2757;DHT22;1386;50.862;6.494;2023-09-19T00:30:11;16.90;99.90
2757;DHT22;1386;50.862;6.494;2023-09-19T00:32:41;16.90;99.90
2757;DHT22;1386;50.862;6.494;2023-09-19T00:35:09;16.90;99.90
2757;DHT22;1386;50.862;6.494;2023-09-19T00:37:37;16.90;99.90
2757;DHT22;1386;50.862;6.494;2023-09-19T00:40:08;16.90;99.90
2757;DHT22;1386;50.862;6.494;2023-09-19T00:42:38;17.00;99.90
2757;DHT22;1386;50.862;6.494;2023-09-19T00:45:06;17.00;99.90
2757;DHT22;1386;50.862;6.494;2023-09-19T00:47:35;17.00;99.90
2757;DHT22;1386;50.862;6.494;2023-09-19T00:50:04;17.00;99.90
2757;DHT22;1386;50.862;6.494;2023-09-19T00:52:33;17.00;99.90
2757;DHT22;1386;50.862;6.494;2023-09-19T00:55:02;17.00;99.90
2757;DHT22;1386;50.862;6.494;2023-09-19T00:57:31;16.90;99.90
2757;DHT22;1386;50.862;6.494;2023-09-19T01:00:00;16.90;99.90
2757;DHT22;1386;50.862;6.494;2023-09-19T01:02:30;16.90;99.90
2757;DHT22;1386;50.862;6.494;2023-09-19T01:04:57;16.90;99.90
2757;DHT22;1386;50.862;6.494;2023-09-19T01:07:24;16.90;99.90
2757;DHT22;1386;50.862;6.494;2023-09-19T01:09:51;16.90;99.90
2757;DHT22;1386;50.862;6.494;2023-09-19T01:12:26;16.90;99.90
2757;DHT22;1386;50.862;6.494;2023-09-19T01:15:04;16.80;99.90
2757;DHT22;1386;50.862;6.494;2023-09-19T01:17:45;16.80;99.90
2757;DHT22;1386;50.862;6.494;2023-09-19T01:20:22;16.70;99.90
2757;DHT22;1386;50.862;6.494;2023-09-19T01:23:00;16.70;99.90
2757;DHT22;1386;50.862;6.494;2023-09-19T01:28:31;16.70;99.90
2757;DHT22;1386;50.862;6.494;2023-09-19T01:31:04;16.70;99.90
2757;DHT22;1386;50.862;6.494;2023-09-19T01:33:59;16.70;99.90
2757;DHT22;1386;50.862;6.494;2023-09-19T01:36:28;16.70;99.90
2757;DHT22;1386;50.862;6.494;2023-09-19T01:38:56;16.70;99.90
2757;DHT22;1386;50.862;6.494;2023-09-19T01:41:33;16.70;99.90
2757;DHT22;1386;50.862;6.494;2023-09-19T01:44:08;16.60;99.90
2757;DHT22;1386;50.862;6.494;2023-09-19T01:46:40;16.60;99.90
2757;DHT22;1386;50.862;6.494;2023-09-19T01:49:18;16.60;99.90
2757;DHT22;1386;50.862;6.494;2023-09-19T01:51:53;16.50;99.90
2757;DHT22;1386;50.862;6.494;2023-09-19T01:54:26;16.50;99.90
2757;DHT22;1386;50.862;6.494;2023-09-19T01:56:59;16.40;99.90
2757;DHT22;1386;50.862;6.494;2023-09-19T01:59:35;16.40;99.90
2757;DHT22;1386;50.862;6.494;2023-09-19T02:02:06;16.40;99.90
2757;DHT22;1386;50.862;6.494;2023-09-19T02:04:34;16.40;99.90
2757;DHT22;1386;50.862;6.494;2023-09-19T02:07:02;16.30;99.90
2757;DHT22;1386;50.862;6.494;2023-09-19T02:09:31;16.30;99.90
2757;DHT22;1386;50.862;6.494;2023-09-19T02:11:58;16.20;99.90
2757;DHT22;1386;50.862;6.494;2023-09-19T02:14:25;16.10;99.90
2757;DHT22;1386;50.862;6.494;2023-09-19T02:16:53;16.10;99.90
2757;DHT22;1386;50.862;6.494;2023-09-19T02:19:21;16.10;99.90
2757;DHT22;1386;50.862;6.494;2023-09-19T02:21:48;16.10;99.90
2757;DHT22;1386;50.862;6.494;2023-09-19T02:24:15;16.10;99.90
2757;DHT22;1386;50.862;6.494;2023-09-19T02:26:42;16.10;99.90
2757;DHT22;1386;50.862;6.494;2023-09-19T02:29:09;16.10;99.90
2757;DHT22;1386;50.862;6.494;2023-09-19T02:31:38;16.00;99.90
2757;DHT22;1386;50.862;6.494;2023-09-19T02:34:08;16.00;99.90
2757;DHT22;1386;50.862;6.494;2023-09-19T02:36:37;16.00;99.90
2757;DHT22;1386;50.862;6.494;2023-09-19T02:39:04;16.00;99.90
2757;DHT22;1386;50.862;6.494;2023-09-19T02:41:33;16.00;99.90
2757;DHT22;1386;50.862;6.494;2023-09-19T02:44:00;16.00;99.90
2757;DHT22;1386;50.862;6.494;2023-09-19T02:46:28;15.90;99.90
2757;DHT22;1386;50.862;6.494;2023-09-19T02:48:54;15.90;99.90
2757;DHT22;1386;50.862;6.494;2023-09-19T02:51:21;15.90;99.90
2757;DHT22;1386;50.862;6.494;2023-09-19T02:53:50;15.90;99.90
2757;DHT22;1386;50.862;6.494;2023-09-19T02:56:18;15.80;99.90
2757;DHT22;1386;50.862;6.494;2023-09-19T02:58:45;15.80;99.90
2757;DHT22;1386;50.862;6.494;2023-09-19T03:01:14;15.80;99.90
2757;DHT22;1386;50.862;6.494;2023-09-19T03:03:41;15.80;99.90
2757;DHT22;1386;50.862;6.494;2023-09-19T10:56:47;20.00;99.90
2757;DHT22;1386;50.862;6.494;2023-09-19T10:59:17;19.80;99.90
2757;DHT22;1386;50.862;6.494;2023-09-19T11:01:44;19.80;99.90
2757;DHT22;1386;50.862;6.494;2023-09-19T11:04:29;19.90;99.90
2757;DHT22;1386;50.862;6.494;2023-09-19T11:14:44;20.10;99.90
2757;DHT22;1386;50.862;6.494;2023-09-19T11:17:43;20.10;99.90
2757;DHT22;1386;50.862;6.494;2023-09-19T11:20:30;20.10;99.90
2757;DHT22;1386;50.862;6.494;2023-09-19T11:23:28;20.00;99.90
2757;DHT22;1386;50.862;6.494;2023-09-19T11:25:56;20.00;99.90
2757;DHT22;1386;50.862;6.494;2023-09-19T11:28:35;19.90;99.90
2757;DHT22;1386;50.862;6.494;2023-09-19T11:34:57;19.90;99.90
2757;DHT22;1386;50.862;6.494;2023-09-19T11:38:00;20.00;99.90
2757;DHT22;1386;50.862;6.494;2023-09-19T11:40:28;20.00;99.90
2757;DHT22;1386;50.862;6.494;2023-09-19T11:42:56;20.00;99.90
2757;DHT22;1386;50.862;6.494;2023-09-19T11:48:28;20.00;99.90
2757;DHT22;1386;50.862;6.494;2023-09-19T11:50:56;20.10;99.90
2757;DHT22;1386;50.862;6.494;2023-09-19T11:53:31;20.20;99.90
2757;DHT22;1386;50.862;6.494;2023-09-19T11:56:04;20.30;99.90
2757;DHT22;1386;50.862;6.494;2023-09-19T11:58:36;20.30;99.90
2757;DHT22;1386;50.862;6.494;2023-09-19T12:01:05;20.40;99.90
2757;DHT22;1386;50.862;6.494;2023-09-19T12:03:42;20.50;99.90
2757;DHT22;1386;50.862;6.494;2023-09-19T12:06:14;20.50;99.90
2757;DHT22;1386;50.862;6.494;2023-09-19T12:08:42;20.50;99.90
2757;DHT22;1386;50.862;6.494;2023-09-19T12:11:21;20.50;99.90
2757;DHT22;1386;50.862;6.494;2023-09-19T12:13:51;20.60;99.90
2757;DHT22;1386;50.862;6.494;2023-09-19T12:16:32;20.70;99.90
2757;DHT22;1386;50.862;6.494;2023-09-19T12:19:20;20.70;99.90
2757;DHT22;1386;50.862;6.494;2023-09-19T12:21:57;20.80;99.90
2757;DHT22;1386;50.862;6.494;2023-09-19T12:27:00;20.90;99.90
2757;DHT22;1386;50.862;6.494;2023-09-19T12:29:45;20.90;99.90
2757;DHT22;1386;50.862;6.494;2023-09-19T12:32:37;21.00;99.90
2757;DHT22;1386;50.862;6.494;2023-09-19T12:35:07;21.10;99.90
2757;DHT22;1386;50.862;6.494;2023-09-19T12:37:43;21.20;99.90
2757;DHT22;1386;50.862;6.494;2023-09-19T12:40:22;21.20;99.90
2757;DHT22;1386;50.862;6.494;2023-09-19T12:43:32;21.20;99.90
2757;DHT22;1386;50.862;6.494;2023-09-19T12:46:05;21.20;99.90
2757;DHT22;1386;50.862;6.494;2023-09-19T12:48:39;21.10;99.90
2757;DHT22;1386;50.862;6.494;2023-09-19T12:51:13;21.00;99.90
2757;DHT22;1386;50.862;6.494;2023-09-19T12:53:57;21.10;99.90
2757;DHT22;1386;50.862;6.494;2023-09-19T12:56:24;21.10;99.90
2757;DHT22;1386;50.862;6.494;2023-09-19T12:59:04;21.20;99.90
2757;DHT22;1386;50.862;6.494;2023-09-19T13:01:46;21.20;99.90
2757;DHT22;1386;50.862;6.494;2023-09-19T13:04:16;21.20;99.90
2757;DHT22;1386;50.862;6.494;2023-09-19T13:06:46;21.20;99.90
2757;DHT22;1386;50.862;6.494;2023-09-19T13:09:16;21.10;99.90
2757;DHT22;1386;50.862;6.494;2023-09-19T13:11:43;21.00;99.90
2757;DHT22;1386;50.862;6.494;2023-09-19T13:14:15;21.10;99.90
2757;DHT22;1386;50.862;6.494;2023-09-19T13:16:53;21.10;99.90
2757;DHT22;1386;50.862;6.494;2023-09-19T13:19:39;21.00;99.90
2757;DHT22;1386;50.862;6.494;2023-09-19T13:22:36;20.90;99.90
2757;DHT22;1386;50.862;6.494;2023-09-19T13:25:09;20.90;99.90
2757;DHT22;1386;50.862;6.494;2023-09-19T13:27:42;20.90;99.90
2757;DHT22;1386;50.862;6.494;2023-09-19T13:30:10;21.00;99.90
2757;DHT22;1386;50.862;6.494;2023-09-19T13:32:37;20.90;99.90
2757;DHT22;1386;50.862;6.494;2023-09-19T13:35:07;21.00;99.90
2757;DHT22;1386;50.862;6.494;2023-09-19T13:37:34;21.00;99.90
2757;DHT22;1386;50.862;6.494;2023-09-19T13:40:06;20.90;99.90
2757;DHT22;1386;50.862;6.494;2023-09-19T13:42:33;20.80;99.90
2757;DHT22;1386;50.862;6.494;2023-09-19T13:45:06;20.80;99.90
2757;DHT22;1386;50.862;6.494;2023-09-19T13:47:54;20.80;99.90
2757;DHT22;1386;50.862;6.494;2023-09-19T13:50:21;20.70;99.90
2757;DHT22;1386;50.862;6.494;2023-09-19T13:52:49;20.70;99.90
2757;DHT22;1386;50.862;6.494;2023-09-19T13:55:18;20.60;99.90
2757;DHT22;1386;50.862;6.494;2023-09-19T13:57:46;20.70;99.90
2757;DHT22;1386;50.862;6.494;2023-09-19T14:00:15;20.80;99.90
2757;DHT22;1386;50.862;6.494;2023-09-19T14:02:43;20.90;99.90
2757;DHT22;1386;50.862;6.494;2023-09-19T14:05:11;20.70;99.90
2757;DHT22;1386;50.862;6.494;2023-09-19T14:07:42;20.60;99.90
2757;DHT22;1386;50.862;6.494;2023-09-19T14:10:10;20.60;99.90
2757;DHT22;1386;50.862;6.494;2023-09-19T14:12:38;20.50;99.90
2757;DHT22;1386;50.862;6.494;2023-09-19T14:15:07;20.60;99.90
2757;DHT22;1386;50.862;6.494;2023-09-19T14:17:34;20.70;99.90
2757;DHT22;1386;50.862;6.494;2023-09-19T14:20:16;20.70;99.90
2757;DHT22;1386;50.862;6.494;2023-09-19T14:22:43;20.60;99.90
2757;DHT22;1386;50.862;6.494;2023-09-19T14:25:10;20.60;99.90
2757;DHT22;1386;50.862;6.494;2023-09-19T14:27:38;20.60;99.90
2757;DHT22;1386;50.862;6.494;2023-09-19T14:30:06;20.50;99.90
2757;DHT22;1386;50.862;6.494;2023-09-19T14:32:34;20.50;99.90
2757;DHT22;1386;50.862;6.494;2023-09-19T14:35:01;20.50;99.90
2757;DHT22;1386;50.862;6.494;2023-09-19T14:37:28;20.50;99.90
2757;DHT22;1386;50.862;6.494;2023-09-19T14:39:56;20.40;99.90
2757;DHT22;1386;50.862;6.494;2023-09-19T14:42:23;20.40;99.90
2757;DHT22;1386;50.862;6.494;2023-09-19T14:44:51;20.40;99.90
2757;DHT22;1386;50.862;6.494;2023-09-19T14:47:18;20.50;99.90
2757;DHT22;1386;50.862;6.494;2023-09-19T14:49:45;20.30;99.90
2757;DHT22;1386;50.862;6.494;2023-09-19T14:52:12;20.30;99.90
2757;DHT22;1386;50.862;6.494;2023-09-19T14:54:41;20.30;99.90
2757;DHT22;1386;50.862;6.494;2023-09-19T14:57:08;20.30;99.90
2757;DHT22;1386;50.862;6.494;2023-09-19T14:59:35;20.20;99.90
2757;DHT22;1386;50.862;6.494;2023-09-19T15:02:04;20.20;99.90
2757;DHT22;1386;50.862;6.494;2023-09-19T15:04:31;20.30;99.90
2757;DHT22;1386;50.862;6.494;2023-09-19T15:06:59;20.20;99.90
2757;DHT22;1386;50.862;6.494;2023-09-19T15:09:26;20.20;99.90
2757;DHT22;1386;50.862;6.494;2023-09-19T15:11:53;20.20;99.90
2757;DHT22;1386;50.862;6.494;2023-09-19T15:14:20;20.20;99.90
2757;DHT22;1386;50.862;6.494;2023-09-19T15:16:47;20.20;99.90
2757;DHT22;1386;50.862;6.494;2023-09-19T15:19:16;20.20;99.90
2757;DHT22;1386;50.862;6.494;2023-09-19T15:21:44;20.20;99.90
2757;DHT22;1386;50.862;6.494;2023-09-19T15:24:11;20.20;99.90
2757;DHT22;1386;50.862;6.494;2023-09-19T15:26:38;20.30;99.90
2757;DHT22;1386;50.862;6.494;2023-09-19T15:29:05;20.20;99.90
2757;DHT22;1386;50.862;6.494;2023-09-19T15:31:33;20.20;99.90
2757;DHT22;1386;50.862;6.494;2023-09-19T15:34:02;20.10;99.90
2757;DHT22;1386;50.862;6.494;2023-09-19T15:36:30;20.20;99.90
2757;DHT22;1386;50.862;6.494;2023-09-19T15:38:59;20.20;99.90
2757;DHT22;1386;50.862;6.494;2023-09-19T15:41:27;20.20;99.90
2757;DHT22;1386;50.862;6.494;2023-09-19T15:43:58;20.30;99.90
2757;DHT22;1386;50.862;6.494;2023-09-19T15:46:27;20.30;99.90
2757;DHT22;1386;50.862;6.494;2023-09-19T15:48:57;20.30;99.90
2757;DHT22;1386;50.862;6.494;2023-09-19T15:51:24;20.20;99.90
2757;DHT22;1386;50.862;6.494;2023-09-19T15:54:12;20.20;99.90
2757;DHT22;1386;50.862;6.494;2023-09-19T15:56:42;20.10;99.90
2757;DHT22;1386;50.862;6.494;2023-09-19T15:59:10;20.10;99.90
2757;DHT22;1386;50.862;6.494;2023-09-19T16:01:45;20.00;99.90
2757;DHT22;1386;50.862;6.494;2023-09-19T16:04:13;20.00;99.90
2757;DHT22;1386;50.862;6.494;2023-09-19T16:06:42;20.00;99.90
2757;DHT22;1386;50.862;6.494;2023-09-19T16:09:09;19.90;99.90
2757;DHT22;1386;50.862;6.494;2023-09-19T16:11:38;20.00;99.90
2757;DHT22;1386;50.862;6.494;2023-09-19T16:14:06;19.90;99.90
2757;DHT22;1386;50.862;6.494;2023-09-19T16:16:35;19.90;99.90
2757;DHT22;1386;50.862;6.494;2023-09-19T16:19:04;19.90;99.90
2757;DHT22;1386;50.862;6.494;2023-09-19T16:21:36;19.90;99.90
2757;DHT22;1386;50.862;6.494;2023-09-19T16:24:06;19.80;99.90
2757;DHT22;1386;50.862;6.494;2023-09-19T16:26:42;19.80;99.90
2757;DHT22;1386;50.862;6.494;2023-09-19T16:29:12;19.70;99.90
2757;DHT22;1386;50.862;6.494;2023-09-19T16:31:39;19.70;99.90
2757;DHT22;1386;50.862;6.494;2023-09-19T16:34:07;19.70;99.90
2757;DHT22;1386;50.862;6.494;2023-09-19T16:36:35;19.70;99.90
2757;DHT22;1386;50.862;6.494;2023-09-19T16:39:03;19.60;99.90
2757;DHT22;1386;50.862;6.494;2023-09-19T16:41:33;19.60;99.90
2757;DHT22;1386;50.862;6.494;2023-09-19T16:44:01;19.50;99.90
2757;DHT22;1386;50.862;6.494;2023-09-19T16:46:29;19.40;99.90
2757;DHT22;1386;50.862;6.494;2023-09-19T16:48:57;19.40;99.90
2757;DHT22;1386;50.862;6.494;2023-09-19T16:51:29;19.40;99.90
